Accueil
METAR-TAF:

METAR-TAF

Aéroports :

Mont-De-Marsan, France

Base aérienne 118 Mont-de-Marsan

latitude: 43-55N, longitude: 000-30W, altitude: 62 m

Observation

Le bulletin a été fait il y a 28 minutes, à 00:30 UTC
Vent 1 kt de direction variable
Température 15°C
Humidité 88%
Pression 1021 hPa
Visibilité 10 km ou plus
Nuages fragmentés à une hauteur de 3200 ft
Ciel couvert à une hauteur de 3800 ft

METAR: LFBM 240030Z AUTO VRB01KT 9999 BKN032 OVC038 15/13 Q1021 NOSIG

Heure: 02:58 (00:58 UTC)

Prévision

Le bulletin a été fait il y a 4 heures et 58 minutes, à 20:00 UTC
Prévision valable du 23 à 21 UTC au 24 à 21 UTC
Vent 5 kt de nord/nord-ouest
Visibilité 10 km ou plus
Ciel couvert à une hauteur de 3500 ft

TAF: LFBM 232000Z 2321/2421 34005KT 9999 OVC035

Observations et prévisions météorologiques de plus de 4000 aéroports (messages METAR et TAF).

Les stations disponibles sont représentées par des disques jaunes et rouges sur la carte.

Passer la souris dessus pour voir le nom de la station.

Cliquer dessus pour voir les observations et prévisions météorologiques.

Pour changer de carte: cliquez sur les boutons verts avec une croix noire pour zoomer, sur le bouton vert avec un tiret pour effectuer un zoom arrière, ou sur les flèches vertes pour les cartes adjacentes.


METAR-TAF: